createdAt,value
2019-03-13T00:01:19.787Z,9.90
2019-03-13T00:03:51.482Z,9.80
2019-03-13T00:06:21.975Z,9.60
2019-03-13T00:08:52.159Z,9.40
2019-03-13T00:11:22.330Z,9.30
2019-03-13T00:13:52.463Z,9.00
2019-03-13T00:16:22.570Z,8.80
2019-03-13T00:18:52.717Z,8.60
2019-03-13T00:21:22.806Z,8.60
2019-03-13T00:23:53.277Z,8.40
2019-03-13T00:26:23.602Z,8.30
2019-03-13T00:28:56.008Z,8.30
2019-03-13T00:31:26.143Z,8.20
2019-03-13T00:33:56.664Z,8.00
2019-03-13T00:36:27.719Z,7.90
2019-03-13T00:38:57.862Z,7.70
2019-03-13T00:41:27.983Z,7.40
2019-03-13T00:43:58.690Z,7.30
2019-03-13T00:46:28.840Z,7.20
2019-03-13T00:48:58.947Z,7.00
2019-03-13T00:51:29.945Z,6.90
2019-03-13T00:54:00.088Z,6.70
2019-03-13T00:56:32.619Z,6.70
2019-03-13T00:59:03.407Z,6.60
2019-03-13T01:01:55.237Z,6.50
2019-03-13T01:04:32.915Z,6.40
2019-03-13T01:07:06.870Z,6.30
2019-03-13T01:09:37.389Z,6.20
2019-03-13T01:12:07.927Z,6.10
2019-03-13T01:14:38.464Z,6.10
2019-03-13T01:17:09.055Z,6.10
2019-03-13T01:19:39.195Z,5.90
2019-03-13T01:22:09.282Z,5.90
2019-03-13T01:24:40.211Z,5.70
2019-03-13T01:27:10.345Z,5.70
2019-03-13T01:29:40.503Z,5.60
2019-03-13T01:32:33.062Z,5.50
2019-03-13T01:35:19.164Z,5.50
2019-03-13T01:37:49.426Z,5.50
2019-03-13T01:40:20.454Z,5.60
2019-03-13T01:42:50.617Z,5.60
2019-03-13T01:45:21.202Z,5.40
2019-03-13T01:47:51.274Z,5.40
2019-03-13T01:50:21.846Z,5.40
2019-03-13T01:52:51.958Z,5.40
2019-03-13T01:55:22.068Z,5.30
2019-03-13T01:57:52.192Z,5.40
2019-03-13T02:00:24.986Z,5.40
2019-03-13T02:02:57.843Z,5.40
2019-03-13T02:05:30.233Z,5.40
2019-03-13T02:08:00.407Z,5.40
2019-03-13T02:10:30.512Z,5.40
2019-03-13T02:13:00.708Z,5.50
2019-03-13T02:15:31.773Z,5.30
2019-03-13T02:18:01.895Z,5.30
2019-03-13T02:20:35.059Z,5.30
2019-03-13T02:23:05.360Z,5.20
2019-03-13T02:25:36.959Z,5.30
2019-03-13T02:28:07.858Z,5.20
2019-03-13T02:30:48.229Z,5.20
2019-03-13T02:33:18.526Z,5.20
2019-03-13T02:35:48.634Z,5.20
2019-03-13T02:38:20.641Z,5.20
2019-03-13T02:40:50.742Z,5.20
2019-03-13T02:43:20.985Z,5.20
2019-03-13T02:45:51.125Z,5.00
2019-03-13T02:48:23.418Z,5.00
2019-03-13T02:50:54.673Z,5.00
2019-03-13T02:53:24.756Z,4.80
2019-03-13T02:55:55.541Z,4.60
2019-03-13T02:58:28.187Z,4.50
2019-03-13T03:01:36.509Z,4.30
2019-03-13T03:04:08.925Z,4.10
2019-03-13T03:06:39.052Z,4.00
2019-03-13T03:09:12.375Z,3.90
2019-03-13T03:11:42.526Z,3.80
2019-03-13T03:14:12.770Z,3.80
2019-03-13T03:16:42.861Z,3.70
2019-03-13T03:19:13.073Z,3.70
2019-03-13T03:21:43.186Z,3.70
2019-03-13T03:24:14.200Z,3.60
2019-03-13T03:26:44.387Z,3.70
2019-03-13T03:29:14.957Z,3.70
2019-03-13T03:31:45.946Z,3.70
2019-03-13T03:34:17.708Z,3.70
2019-03-13T03:36:47.897Z,3.80
2019-03-13T03:39:18.008Z,3.90
2019-03-13T03:41:49.187Z,4.00
2019-03-13T03:44:19.422Z,4.00
2019-03-13T03:46:49.566Z,4.10
2019-03-13T03:49:19.709Z,4.10
2019-03-13T03:51:53.394Z,4.20
2019-03-13T03:54:23.594Z,4.20
2019-03-13T03:56:53.879Z,4.30
2019-03-13T03:59:24.018Z,4.30
2019-03-13T04:01:54.571Z,4.30
2019-03-13T04:04:25.336Z,4.20
2019-03-13T04:06:55.652Z,4.30
2019-03-13T04:09:25.805Z,4.40
2019-03-13T04:11:56.809Z,4.40
2019-03-13T04:14:30.053Z,4.50
2019-03-13T04:17:01.060Z,4.50
2019-03-13T04:19:31.507Z,4.50
2019-03-13T04:22:02.696Z,4.40
2019-03-13T04:24:34.376Z,4.30
2019-03-13T04:27:04.576Z,4.30
2019-03-13T04:29:37.272Z,4.20
2019-03-13T04:32:07.854Z,4.20
2019-03-13T04:34:37.956Z,4.30
2019-03-13T04:37:08.962Z,4.30
2019-03-13T04:39:39.083Z,4.30
2019-03-13T04:42:11.414Z,4.30
2019-03-13T04:44:42.618Z,4.20
2019-03-13T04:47:13.329Z,4.20
2019-03-13T04:49:44.205Z,4.30
2019-03-13T04:52:15.313Z,4.30
2019-03-13T04:54:45.423Z,4.30
2019-03-13T04:57:15.645Z,4.10
2019-03-13T04:59:46.068Z,4.00
2019-03-13T05:02:16.308Z,3.70
2019-03-13T05:04:46.601Z,3.60
2019-03-13T05:07:16.709Z,3.60
2019-03-13T05:09:47.135Z,3.60
2019-03-13T05:12:18.576Z,3.60
2019-03-13T05:14:48.654Z,3.60
2019-03-13T05:17:18.850Z,3.70
2019-03-13T05:19:50.412Z,3.80
2019-03-13T05:22:20.518Z,3.80
2019-03-13T05:24:50.849Z,3.90
2019-03-13T05:27:20.953Z,3.90
2019-03-13T05:29:53.928Z,3.90
2019-03-13T05:32:24.070Z,3.90
2019-03-13T05:34:55.007Z,3.80
2019-03-13T05:37:25.165Z,3.80
2019-03-13T05:39:58.647Z,3.70
2019-03-13T05:42:28.748Z,3.70
2019-03-13T05:44:59.367Z,3.60
2019-03-13T05:47:29.790Z,3.60
2019-03-13T05:49:59.915Z,3.60
2019-03-13T05:52:30.138Z,3.50
2019-03-13T05:55:00.373Z,3.50
2019-03-13T05:57:30.614Z,3.50
2019-03-13T06:00:00.762Z,3.40
2019-03-13T06:02:30.880Z,3.40
2019-03-13T06:05:02.977Z,3.40
2019-03-13T06:07:37.930Z,3.30
2019-03-13T06:10:08.116Z,3.30
2019-03-13T06:12:40.592Z,3.30
2019-03-13T06:15:11.374Z,3.30
2019-03-13T06:17:41.849Z,3.30
2019-03-13T06:20:13.653Z,3.40
2019-03-13T06:22:45.024Z,3.60
2019-03-13T06:25:15.687Z,3.80
2019-03-13T06:27:46.659Z,3.80
2019-03-13T06:30:18.916Z,3.90
2019-03-13T06:32:49.664Z,4.00
2019-03-13T06:35:19.803Z,4.10
2019-03-13T06:37:49.937Z,4.20
2019-03-13T06:40:21.362Z,4.30
2019-03-13T06:42:52.901Z,4.30
2019-03-13T06:45:23.467Z,4.20
2019-03-13T06:47:57.784Z,4.10
2019-03-13T06:50:28.214Z,4.20
2019-03-13T06:52:58.334Z,4.30
2019-03-13T06:55:30.791Z,4.30
2019-03-13T06:58:01.395Z,4.40
2019-03-13T07:00:58.136Z,4.50
2019-03-13T07:03:43.360Z,4.50
2019-03-13T07:06:31.186Z,4.50
2019-03-13T07:09:19.059Z,4.70
2019-03-13T07:12:00.152Z,4.80
2019-03-13T07:14:39.703Z,4.70
2019-03-13T07:17:16.601Z,4.80
2019-03-13T07:20:05.870Z,4.80
2019-03-13T07:22:57.968Z,4.80
2019-03-13T07:25:46.430Z,4.90
2019-03-13T07:28:32.903Z,5.00
2019-03-13T07:31:13.936Z,5.00
2019-03-13T07:34:08.620Z,5.00
2019-03-13T07:36:48.592Z,5.20
2019-03-13T07:39:43.065Z,5.50
2019-03-13T07:42:44.236Z,5.50
2019-03-13T07:45:42.294Z,5.60
2019-03-13T07:48:23.681Z,5.70
2019-03-13T07:51:11.032Z,5.80
2019-03-13T07:54:03.143Z,5.90
2019-03-13T07:57:00.555Z,6.00
2019-03-13T07:59:49.322Z,6.00
2019-03-13T08:02:24.661Z,6.20
2019-03-13T08:05:03.214Z,6.00
2019-03-13T08:07:50.953Z,5.80
2019-03-13T08:10:40.046Z,5.50
2019-03-13T08:13:27.878Z,5.50
2019-03-13T08:19:11.174Z,5.40
2019-03-13T08:21:59.470Z,5.50
2019-03-13T08:24:51.357Z,5.70
2019-03-13T08:27:35.636Z,5.60
2019-03-13T08:30:25.840Z,5.70
2019-03-13T08:33:17.943Z,6.00
2019-03-13T08:36:05.778Z,6.10
2019-03-13T08:39:02.227Z,5.90
2019-03-13T08:42:00.522Z,5.90
2019-03-13T08:44:43.820Z,5.90
2019-03-13T08:47:42.448Z,6.00
2019-03-13T08:50:23.599Z,6.30
2019-03-13T08:53:14.618Z,6.10
2019-03-13T08:55:56.018Z,6.10
2019-03-13T08:58:48.234Z,5.90
2019-03-13T09:01:37.348Z,5.80
2019-03-13T09:04:26.840Z,6.00
2019-03-13T09:07:14.868Z,6.10
2019-03-13T09:10:10.623Z,6.30
2019-03-13T09:13:14.959Z,6.30
2019-03-13T09:16:13.073Z,6.30
2019-03-13T09:19:30.684Z,6.20
2019-03-13T09:22:12.140Z,6.60
2019-03-13T09:25:11.311Z,6.80
2019-03-13T09:28:12.715Z,6.50
2019-03-13T09:31:00.362Z,6.00
2019-03-13T09:33:45.809Z,5.80
2019-03-13T09:36:33.554Z,5.70
2019-03-13T09:39:33.718Z,5.70
2019-03-13T09:42:23.587Z,5.80
2019-03-13T09:45:11.030Z,6.00
2019-03-13T09:47:50.415Z,6.20
2019-03-13T09:50:43.405Z,6.30
2019-03-13T09:53:44.790Z,6.40
2019-03-13T09:56:35.856Z,6.50
2019-03-13T09:59:43.400Z,6.60
2019-03-13T10:02:47.268Z,6.50
2019-03-13T10:05:28.229Z,6.50
2019-03-13T10:08:05.184Z,6.60
2019-03-13T10:10:57.298Z,6.60
2019-03-13T10:13:36.424Z,6.50
2019-03-13T10:16:24.410Z,6.00
2019-03-13T10:19:26.026Z,6.50
2019-03-13T10:22:13.110Z,6.60
2019-03-13T10:25:05.509Z,7.00
2019-03-13T10:28:09.863Z,6.80
2019-03-13T10:30:57.733Z,6.70
2019-03-13T10:33:38.855Z,6.80
2019-03-13T10:36:34.692Z,7.00
2019-03-13T10:39:29.340Z,7.00
2019-03-13T10:42:18.193Z,7.00
2019-03-13T10:45:02.728Z,7.10
2019-03-13T10:47:52.110Z,7.00
2019-03-13T10:51:00.541Z,7.20
2019-03-13T10:53:46.029Z,7.40
2019-03-13T10:56:39.230Z,7.50
2019-03-13T10:59:45.113Z,7.60
2019-03-13T11:02:30.253Z,8.00
2019-03-13T11:05:22.466Z,7.90
2019-03-13T11:08:06.068Z,8.00
2019-03-13T11:10:52.492Z,7.70
2019-03-13T11:13:32.787Z,7.50
2019-03-13T11:16:20.774Z,7.50
2019-03-13T11:18:57.188Z,7.60
2019-03-13T11:21:58.840Z,7.60
2019-03-13T11:24:56.729Z,7.50
2019-03-13T11:27:37.583Z,7.30
2019-03-13T11:30:14.041Z,7.30
2019-03-13T11:33:03.028Z,7.70
2019-03-13T11:35:40.103Z,7.70
2019-03-13T11:38:27.984Z,7.90
2019-03-13T11:41:19.141Z,8.10
2019-03-13T11:43:56.810Z,7.80
2019-03-13T11:46:57.178Z,7.60
2019-03-13T11:49:46.849Z,7.40
2019-03-13T11:52:51.377Z,7.20
2019-03-13T11:55:30.575Z,7.30
2019-03-13T11:58:19.174Z,7.50
2019-03-13T12:01:17.638Z,7.50
2019-03-13T12:04:10.424Z,7.40
2019-03-13T12:06:54.553Z,7.10
2019-03-13T12:09:43.633Z,7.40
2019-03-13T12:12:30.037Z,7.50
2019-03-13T12:15:36.263Z,7.30
2019-03-13T12:18:14.058Z,7.30
2019-03-13T12:21:02.065Z,7.30
2019-03-13T12:24:01.882Z,6.80
2019-03-13T12:26:50.951Z,6.20
2019-03-13T12:29:42.770Z,5.90
2019-03-13T12:32:23.297Z,6.10
2019-03-13T12:35:02.017Z,6.50
2019-03-13T12:38:00.431Z,7.00
2019-03-13T12:40:55.084Z,7.30
2019-03-13T12:43:51.365Z,7.40
2019-03-13T12:46:49.846Z,7.60
2019-03-13T12:49:38.974Z,7.20
2019-03-13T12:52:38.685Z,7.30
2019-03-13T12:55:43.097Z,7.80
2019-03-13T12:58:32.538Z,8.10
2019-03-13T13:01:17.793Z,7.80
2019-03-13T13:04:05.548Z,7.40
2019-03-13T13:06:55.832Z,7.30
2019-03-13T13:09:53.796Z,7.40
2019-03-13T13:12:52.039Z,7.50
2019-03-13T13:15:51.137Z,7.30
2019-03-13T13:18:52.862Z,6.70
2019-03-13T13:21:23.823Z,6.20
2019-03-13T13:23:55.507Z,6.10
2019-03-13T13:26:25.755Z,6.40
2019-03-13T13:28:55.988Z,6.90
2019-03-13T13:31:26.185Z,6.90
2019-03-13T13:33:56.303Z,6.80
2019-03-13T13:36:27.247Z,6.70
2019-03-13T13:38:57.869Z,7.00
2019-03-13T13:41:27.974Z,7.40
2019-03-13T13:43:58.371Z,7.50
2019-03-13T13:46:30.685Z,8.00
2019-03-13T13:49:00.842Z,8.20
2019-03-13T13:51:32.741Z,8.60
2019-03-13T13:54:03.945Z,8.70
2019-03-13T13:56:34.559Z,8.80
2019-03-13T13:59:05.183Z,8.80
2019-03-13T14:01:39.780Z,9.40
2019-03-13T14:04:15.639Z,9.90
2019-03-13T14:06:47.763Z,10.80
2019-03-13T14:09:18.214Z,10.80
2019-03-13T14:11:52.719Z,10.50
2019-03-13T14:14:26.075Z,11.00
2019-03-13T14:16:56.481Z,11.50
2019-03-13T14:19:27.917Z,11.50
2019-03-13T14:22:04.119Z,11.20
2019-03-13T14:24:39.485Z,11.30
2019-03-13T14:27:14.412Z,12.60
2019-03-13T14:29:41.805Z,12.80
2019-03-13T14:32:12.725Z,13.60
2019-03-13T14:34:52.844Z,13.60
2019-03-13T14:37:22.980Z,12.40
2019-03-13T14:39:53.155Z,12.80
2019-03-13T14:42:23.900Z,11.40
2019-03-13T14:44:59.947Z,9.80
2019-03-13T14:47:33.218Z,9.90
2019-03-13T14:50:07.087Z,10.40
2019-03-13T14:52:39.987Z,10.40
2019-03-13T14:55:13.943Z,9.70
2019-03-13T14:57:44.135Z,9.20
2019-03-13T15:00:18.561Z,9.10
2019-03-13T15:02:48.955Z,8.70
2019-03-13T15:05:19.469Z,8.60
2019-03-13T15:07:49.904Z,8.50
2019-03-13T15:10:20.710Z,8.30
2019-03-13T15:12:53.635Z,8.30
2019-03-13T15:15:26.543Z,8.30
2019-03-13T15:17:56.736Z,8.60
2019-03-13T15:20:26.902Z,8.70
2019-03-13T15:22:57.041Z,8.40
2019-03-13T15:25:27.253Z,8.40
2019-03-13T15:27:57.439Z,8.60
2019-03-13T15:30:27.645Z,8.40
2019-03-13T15:32:57.845Z,8.10
2019-03-13T15:35:28.025Z,8.10
2019-03-13T15:37:58.172Z,8.20
2019-03-13T15:40:28.308Z,8.20
2019-03-13T15:42:58.530Z,8.30
2019-03-13T15:45:29.120Z,8.30
2019-03-13T15:47:59.279Z,8.00
2019-03-13T15:50:29.442Z,8.00
2019-03-13T15:52:59.780Z,8.10
2019-03-13T15:55:30.045Z,8.00
2019-03-13T15:58:00.240Z,8.00
2019-03-13T16:00:30.433Z,7.70
2019-03-13T16:03:00.676Z,7.70
2019-03-13T16:05:31.985Z,7.70
2019-03-13T16:08:02.220Z,7.70
2019-03-13T16:10:32.735Z,7.70
2019-03-13T16:13:06.204Z,7.60
2019-03-13T16:15:37.937Z,7.50
2019-03-13T16:18:08.226Z,7.40
2019-03-13T16:20:43.212Z,7.60
2019-03-13T16:23:17.270Z,7.40
2019-03-13T16:25:54.407Z,7.40
2019-03-13T16:28:24.940Z,7.30
2019-03-13T16:30:55.709Z,7.10
2019-03-13T16:33:26.110Z,7.00
2019-03-13T16:35:56.820Z,7.00
2019-03-13T16:38:30.940Z,7.10
2019-03-13T16:41:02.536Z,7.10
2019-03-13T16:43:34.097Z,7.30
2019-03-13T16:46:09.616Z,7.30
2019-03-13T16:48:41.840Z,7.20
2019-03-13T16:51:11.999Z,7.10
2019-03-13T16:53:42.201Z,7.10
2019-03-13T16:56:14.431Z,7.10
2019-03-13T16:58:44.664Z,7.00
2019-03-13T17:01:15.106Z,6.80
2019-03-13T17:03:47.935Z,6.70
2019-03-13T17:06:18.042Z,6.60
2019-03-13T17:08:48.188Z,6.60
2019-03-13T17:11:18.368Z,6.70
2019-03-13T17:14:23.843Z,6.60
2019-03-13T17:19:30.201Z,6.70
2019-03-13T17:22:00.423Z,6.70
2019-03-13T17:24:32.586Z,6.70
2019-03-13T17:27:02.765Z,6.50
2019-03-13T17:29:34.643Z,6.50
2019-03-13T17:32:05.250Z,6.60
2019-03-13T17:34:36.487Z,6.50
2019-03-13T17:37:07.579Z,6.50
2019-03-13T17:39:37.783Z,6.60
2019-03-13T17:42:07.934Z,6.60
2019-03-13T17:44:41.157Z,6.60
2019-03-13T17:47:11.863Z,6.60
2019-03-13T17:49:43.186Z,6.70
2019-03-13T17:52:14.788Z,6.70
2019-03-13T17:54:45.245Z,6.60
2019-03-13T17:57:15.402Z,6.60
2019-03-13T17:59:50.424Z,6.70
2019-03-13T18:02:23.249Z,6.70
2019-03-13T18:04:54.698Z,6.70
2019-03-13T18:07:24.879Z,6.80
2019-03-13T18:09:56.009Z,6.80
2019-03-13T18:12:26.431Z,6.80
2019-03-13T18:14:58.563Z,6.90
2019-03-13T18:17:30.500Z,6.80
2019-03-13T18:20:02.481Z,6.80
2019-03-13T18:22:33.818Z,6.70
2019-03-13T18:25:04.897Z,6.70
2019-03-13T18:27:36.822Z,6.60
2019-03-13T18:30:10.354Z,6.50
2019-03-13T18:32:42.103Z,6.40
2019-03-13T18:35:13.786Z,6.30
2019-03-13T18:37:44.646Z,6.20
2019-03-13T18:40:15.244Z,6.30
2019-03-13T18:42:52.185Z,6.30
2019-03-13T18:45:21.596Z,6.20
2019-03-13T18:47:51.818Z,6.20
2019-03-13T18:50:22.693Z,6.20
2019-03-13T18:52:54.236Z,6.20
2019-03-13T18:55:24.853Z,6.10
2019-03-13T18:57:55.341Z,5.80
2019-03-13T19:00:27.748Z,5.70
2019-03-13T19:03:00.202Z,5.80
2019-03-13T19:05:30.711Z,5.60
2019-03-13T19:08:01.200Z,5.60
2019-03-13T19:10:32.898Z,5.50
2019-03-13T19:13:03.511Z,5.50
2019-03-13T19:15:34.003Z,5.40
2019-03-13T19:18:05.009Z,5.10
2019-03-13T19:20:36.799Z,5.00
2019-03-13T19:23:14.210Z,4.90
2019-03-13T19:25:44.278Z,4.90
2019-03-13T19:28:17.288Z,4.80
2019-03-13T19:30:47.923Z,4.70
2019-03-13T19:33:18.110Z,4.80
2019-03-13T19:35:48.237Z,4.70
2019-03-13T19:38:18.950Z,4.70
2019-03-13T19:40:49.322Z,4.60
2019-03-13T19:43:28.600Z,4.70
2019-03-13T19:45:58.862Z,4.60
2019-03-13T19:48:30.358Z,4.60
2019-03-13T19:51:00.739Z,4.60
2019-03-13T19:53:30.944Z,4.70
2019-03-13T19:56:01.260Z,4.60
2019-03-13T19:58:33.253Z,4.60
2019-03-13T20:01:06.186Z,4.70
2019-03-13T20:03:38.499Z,4.60
2019-03-13T20:06:10.894Z,4.50
2019-03-13T20:08:43.390Z,4.60
2019-03-13T20:11:14.028Z,4.60
2019-03-13T20:13:44.234Z,4.60
2019-03-13T20:16:16.813Z,4.70
2019-03-13T20:18:49.953Z,4.60
2019-03-13T20:21:20.246Z,4.70
2019-03-13T20:23:51.045Z,4.70
2019-03-13T20:26:21.370Z,4.60
2019-03-13T20:28:51.751Z,4.50
2019-03-13T20:31:22.447Z,4.50
2019-03-13T20:33:53.724Z,4.40
2019-03-13T20:36:24.568Z,4.40
2019-03-13T20:38:55.177Z,4.40
2019-03-13T20:41:25.802Z,4.40
2019-03-13T20:43:56.054Z,4.40
2019-03-13T20:46:26.230Z,4.30
2019-03-13T20:48:57.024Z,4.20
2019-03-13T20:51:29.298Z,4.10
2019-03-13T20:54:04.144Z,4.10
2019-03-13T20:56:42.246Z,4.10
2019-03-13T20:59:13.774Z,4.00
2019-03-13T21:01:43.954Z,4.00
2019-03-13T21:04:15.460Z,3.90
2019-03-13T21:06:45.749Z,4.00
2019-03-13T21:09:15.906Z,4.00
2019-03-13T21:11:46.085Z,3.90
2019-03-13T21:14:17.849Z,3.80
2019-03-13T21:16:49.178Z,3.80
2019-03-13T21:19:21.214Z,3.90
2019-03-13T21:21:52.046Z,3.90
2019-03-13T21:24:22.176Z,3.90
2019-03-13T21:26:53.879Z,4.00
2019-03-13T21:29:25.611Z,4.10
2019-03-13T21:31:57.345Z,4.10
2019-03-13T21:34:28.503Z,4.00
2019-03-13T21:37:00.900Z,4.10
2019-03-13T21:39:34.850Z,4.10
2019-03-13T21:42:04.969Z,4.20
2019-03-13T21:44:42.778Z,4.20
2019-03-13T21:51:09.943Z,4.00
2019-03-13T21:53:40.995Z,4.20
2019-03-13T21:56:12.764Z,4.10
2019-03-13T21:58:43.794Z,3.90
2019-03-13T22:01:19.814Z,3.80
2019-03-13T22:03:49.672Z,3.80
2019-03-13T22:06:28.499Z,3.80
2019-03-13T22:08:59.622Z,3.80
2019-03-13T22:11:31.375Z,3.90
2019-03-13T22:14:03.055Z,3.90
2019-03-13T22:16:33.162Z,3.90
2019-03-13T22:19:12.594Z,3.90
2019-03-13T22:21:42.886Z,3.90
2019-03-13T22:24:16.241Z,3.90
2019-03-13T22:26:48.459Z,3.90
2019-03-13T22:29:18.696Z,4.00
2019-03-13T22:31:48.875Z,4.10
2019-03-13T22:34:22.492Z,4.10
2019-03-13T22:36:52.627Z,4.20
2019-03-13T22:39:25.091Z,4.20
2019-03-13T22:41:57.312Z,4.20
2019-03-13T22:44:29.191Z,4.10
2019-03-13T22:47:05.149Z,4.20
2019-03-13T22:49:36.934Z,4.10
2019-03-13T22:52:12.206Z,4.10
2019-03-13T22:54:42.530Z,4.20
2019-03-13T22:57:12.679Z,4.20
2019-03-13T22:59:43.633Z,4.20
2019-03-13T23:02:14.028Z,4.20
2019-03-13T23:04:57.618Z,4.20
2019-03-13T23:07:28.598Z,4.20
2019-03-13T23:10:04.678Z,4.20
2019-03-13T23:12:37.260Z,4.20
2019-03-13T23:15:09.092Z,4.20
2019-03-13T23:17:39.591Z,4.20
2019-03-13T23:20:09.705Z,4.20
2019-03-13T23:22:40.018Z,4.20
2019-03-13T23:25:10.418Z,4.10
2019-03-13T23:27:40.675Z,4.10
2019-03-13T23:30:16.639Z,4.00
2019-03-13T23:35:27.481Z,3.80
2019-03-13T23:38:00.645Z,3.80
2019-03-13T23:40:32.083Z,3.70
2019-03-13T23:43:04.087Z,3.70
2019-03-13T23:45:36.399Z,3.70
2019-03-13T23:48:12.234Z,3.60
2019-03-13T23:50:43.367Z,3.60
2019-03-13T23:53:13.514Z,3.60
2019-03-13T23:55:43.783Z,3.70
2019-03-13T23:58:14.325Z,3.80
